Time;durP1;ratioP1;P1;durP2;ratioP2;P2;SDS_P1;SDS_P2;PMS_P1;PMS_P2;Temp;Humidity;BMP_temperature;BMP_pressure;BME280_temperature;BME280_humidity;BME280_pressure;Samples;Min_cycle;Max_cycle;Signal;HPM_P1;HPM_P2
2022/06/28 00:04:59;;;;;;;2.72;1.23;;;29.90;60.60;;;;;;10941586;32;20042;-69
2022/06/28 00:11:01;;;;;;;4.57;1.20;;;29.80;60.80;;;;;;10941429;32;20045;-69
2022/06/28 00:17:03;;;;;;;5.55;1.98;;;29.80;60.70;;;;;;10941346;32;20108;-69
2022/06/28 00:23:06;;;;;;;4.05;1.77;;;29.80;60.70;;;;;;10927499;32;20032;-70
2022/06/28 00:29:08;;;;;;;3.30;1.73;;;29.70;61.30;;;;;;10941169;32;20300;-70
2022/06/28 00:35:10;;;;;;;6.37;1.92;;;29.70;61.60;;;;;;10941261;32;20057;-70
2022/06/28 00:41:13;;;;;;;3.25;1.48;;;29.70;61.60;;;;;;10927861;32;20038;-69
2022/06/28 00:47:15;;;;;;;5.18;1.25;;;29.70;61.60;;;;;;10944228;32;20028;-69
2022/06/28 00:53:19;;;;;;;2.25;1.37;;;29.60;61.70;;;;;;10939413;32;20049;-70
2022/06/28 00:59:21;;;;;;;6.75;2.15;;;29.60;61.70;;;;;;10943867;32;20045;-70
2022/06/28 01:05:23;;;;;;;3.20;1.80;;;29.60;61.90;;;;;;10939481;32;20092;-70
2022/06/28 01:11:28;;;;;;;2.55;1.48;;;29.50;62.00;;;;;;10940848;32;20042;-70
2022/06/28 01:17:30;;;;;;;1.65;1.27;;;29.40;62.10;;;;;;10940506;32;20391;-69
2022/06/28 01:23:34;;;;;;;5.03;2.22;;;29.30;62.50;;;;;;10939245;32;20027;-69
2022/06/28 01:29:38;;;;;;;9.93;2.37;;;29.30;62.50;;;;;;10938686;32;20022;-69
2022/06/28 01:35:40;;;;;;;3.17;1.42;;;29.30;63.10;;;;;;10926702;32;20023;-69
2022/06/28 01:41:43;;;;;;;3.40;1.73;;;29.30;63.20;;;;;;10939770;32;20395;-70
2022/06/28 01:47:47;;;;;;;6.12;2.08;;;29.20;63.00;;;;;;10938071;32;20033;-70
2022/06/28 01:53:52;;;;;;;5.50;1.75;;;29.20;63.10;;;;;;10926853;32;20019;-69
2022/06/28 01:59:54;;;;;;;8.43;1.52;;;29.10;63.10;;;;;;10938241;32;20053;-69
2022/06/28 02:05:57;;;;;;;6.40;1.30;;;28.90;63.20;;;;;;10936981;32;20441;-69
2022/06/28 02:11:59;;;;;;;4.78;1.62;;;28.90;63.30;;;;;;10937580;32;20395;-69
2022/06/28 02:18:01;;;;;;;3.80;1.50;;;28.80;63.10;;;;;;10924144;32;20050;-69
2022/06/28 02:24:05;;;;;;;2.45;1.50;;;28.80;63.20;;;;;;10937455;32;20073;-69
2022/06/28 02:30:08;;;;;;;4.30;1.08;;;28.70;63.60;;;;;;10937347;32;20045;-69
2022/06/28 02:42:31;;;;;;;3.78;1.87;;;28.40;63.80;;;;;;10937015;32;20023;-69
2022/06/28 02:48:33;;;;;;;9.75;2.15;;;28.40;63.80;;;;;;10937331;32;20055;-69
2022/06/28 02:54:35;;;;;;;2.45;1.75;;;28.30;63.60;;;;;;10936940;32;20031;-69
2022/06/28 03:00:37;;;;;;;3.40;1.33;;;28.30;63.70;;;;;;10937617;32;20026;-69
2022/06/28 03:06:39;;;;;;;6.18;2.15;;;28.40;64.10;;;;;;10937060;32;20068;-69
2022/06/28 03:12:42;;;;;;;5.93;1.65;;;28.30;63.80;;;;;;10923204;32;20328;-69
2022/06/28 03:18:44;;;;;;;3.35;1.52;;;28.10;64.10;;;;;;10942463;32;20031;-70
2022/06/28 03:24:47;;;;;;;4.55;1.45;;;28.20;64.30;;;;;;10933928;32;20049;-75
2022/06/28 03:30:49;;;;;;;3.22;1.48;;;28.10;64.90;;;;;;10947214;32;20026;-76
2022/06/28 03:36:51;;;;;;;3.87;2.35;;;28.10;64.60;;;;;;10943043;32;20294;-76
2022/06/28 03:42:55;;;;;;;4.68;1.90;;;28.00;64.80;;;;;;10946948;32;20023;-76
2022/06/28 03:48:57;;;;;;;3.00;1.85;;;27.80;64.80;;;;;;10946676;32;20053;-76
2022/06/28 03:55:00;;;;;;;4.75;1.65;;;27.70;64.90;;;;;;10946379;32;20019;-76
2022/06/28 04:01:03;;;;;;;2.45;1.45;;;27.70;65.00;;;;;;10946032;32;20191;-76
2022/06/28 04:07:05;;;;;;;2.45;1.10;;;27.70;64.80;;;;;;10945927;32;20027;-76
2022/06/28 04:13:08;;;;;;;5.53;1.87;;;27.70;64.90;;;;;;10945992;32;20019;-76
2022/06/28 04:19:10;;;;;;;8.85;2.30;;;27.70;64.80;;;;;;10945627;32;20027;-76
2022/06/28 04:25:12;;;;;;;5.18;1.58;;;27.70;64.70;;;;;;10944829;32;20023;-76
2022/06/28 04:31:15;;;;;;;2.17;1.10;;;27.80;64.30;;;;;;11004801;27;20436;-75
2022/06/28 04:37:19;;;;;;;10.20;2.12;;;27.90;64.10;;;;;;11020538;32;20026;-75
2022/06/28 04:43:22;;;;;;;4.53;2.22;;;28.00;63.80;;;;;;11020129;32;20026;-69
2022/06/28 04:49:24;;;;;;;6.32;1.40;;;28.00;63.80;;;;;;11015620;32;20053;-69
2022/06/28 04:55:27;;;;;;;6.47;1.77;;;27.90;63.90;;;;;;11001934;32;20014;-69
2022/06/28 05:01:48;;;;;;;3.53;1.33;;;27.90;63.90;;;;;;11015164;32;20026;-69
2022/06/28 05:07:50;;;;;;;5.22;1.55;;;27.90;63.80;;;;;;11015152;32;20303;-69
2022/06/28 05:13:53;;;;;;;4.75;2.25;;;27.90;63.80;;;;;;11014890;32;20018;-69
2022/06/28 05:19:55;;;;;;;6.10;1.58;;;28.10;63.50;;;;;;11014620;32;20026;-69
2022/06/28 05:25:57;;;;;;;2.83;1.48;;;28.30;63.30;;;;;;11014557;32;20052;-70
2022/06/28 05:32:10;;;;;;;3.30;1.85;;;28.30;63.20;;;;;;11001179;32;20040;-69
2022/06/28 05:38:12;;;;;;;7.65;1.92;;;28.40;62.80;;;;;;11014830;32;20048;-69
2022/06/28 05:44:16;;;;;;;2.83;1.87;;;28.50;62.60;;;;;;11000060;32;20034;-69
2022/06/28 05:50:19;;;;;;;3.90;1.45;;;28.60;62.40;;;;;;11014237;32;20017;-69
2022/06/28 05:56:21;;;;;;;3.47;1.40;;;28.80;62.10;;;;;;11000189;32;20064;-69
2022/06/28 06:02:23;;;;;;;11.57;2.03;;;28.80;61.90;;;;;;11013540;32;20073;-68
2022/06/28 06:08:26;;;;;;;4.97;1.62;;;29.00;61.70;;;;;;11013984;32;20052;-69
2022/06/28 06:14:48;;;;;;;4.28;1.65;;;29.10;61.40;;;;;;11014604;32;20025;-70
2022/06/28 06:20:50;;;;;;;5.15;2.30;;;29.30;61.10;;;;;;11014371;32;20022;-69
2022/06/28 06:26:52;;;;;;;2.95;1.08;;;29.40;61.20;;;;;;10995975;32;20061;-69
2022/06/28 06:32:55;;;;;;;5.50;2.35;;;29.50;60.90;;;;;;10975051;32;20039;-69
2022/06/28 06:38:59;;;;;;;9.98;2.58;;;29.60;60.70;;;;;;10976362;32;20049;-69
2022/06/28 06:45:01;;;;;;;7.87;2.15;;;29.70;60.40;;;;;;10965642;32;20014;-74
2022/06/28 06:51:03;;;;;;;5.95;1.70;;;29.80;60.00;;;;;;10981679;32;20481;-69
2022/06/28 06:57:06;;;;;;;5.28;1.85;;;29.80;60.00;;;;;;10968179;32;20030;-69
2022/06/28 07:03:08;;;;;;;7.87;2.05;;;29.80;59.80;;;;;;10996780;32;20432;-70
2022/06/28 07:09:15;;;;;;;4.47;1.60;;;29.90;59.70;;;;;;10984638;32;20052;-68
2022/06/28 07:15:18;;;;;;;3.55;1.58;;;30.10;59.00;;;;;;10981601;32;20057;-68
2022/06/28 07:21:21;;;;;;;7.32;2.05;;;30.30;58.80;;;;;;10984923;32;20042;-75
2022/06/28 07:27:23;;;;;;;8.73;2.40;;;30.60;58.20;;;;;;10971583;32;20346;-73
2022/06/28 07:33:26;;;;;;;8.98;3.05;;;30.80;57.90;;;;;;10984935;32;20308;-75
2022/06/28 07:39:29;;;;;;;4.85;1.83;;;30.90;57.20;;;;;;10984716;32;20049;-73
2022/06/28 07:45:36;;;;;;;5.27;2.37;;;31.10;56.50;;;;;;10984463;32;20037;-72
2022/06/28 07:58:00;;;;;;;11.00;2.45;;;31.40;55.30;;;;;;10983983;32;20080;-74
2022/06/28 08:04:10;;;;;;;10.95;2.83;;;31.70;55.00;;;;;;10983682;32;20022;-71
2022/06/28 08:10:13;;;;;;;11.57;3.62;;;31.80;53.30;;;;;;10983511;32;20049;-73
2022/06/28 08:16:16;;;;;;;22.65;5.03;;;31.90;52.80;;;;;;10983452;32;20014;-73
2022/06/28 08:22:19;;;;;;;8.88;2.78;;;31.80;52.80;;;;;;10983004;32;20399;-73
2022/06/28 08:28:21;;;;;;;7.70;2.90;;;31.90;52.40;;;;;;11009075;32;20022;-73
2022/06/28 08:34:24;;;;;;;13.65;3.22;;;32.20;51.40;;;;;;11020839;32;20107;-72
2022/06/28 08:40:29;;;;;;;11.52;3.22;;;32.30;51.20;;;;;;11020453;32;20031;-72
2022/06/28 08:46:34;;;;;;;7.68;3.00;;;32.50;50.30;;;;;;11020409;32;20049;-75
2022/06/28 08:52:44;;;;;;;9.57;3.62;;;32.60;50.70;;;;;;11020201;32;20378;-74
2022/06/28 08:58:46;;;;;;;11.00;2.58;;;32.80;50.20;;;;;;11019706;32;20018;-73
2022/06/28 09:04:53;;;;;;;7.85;3.20;;;33.00;48.90;;;;;;11005917;32;20049;-73
2022/06/28 09:10:59;;;;;;;9.02;2.72;;;33.30;47.90;;;;;;11006161;32;20060;-73
2022/06/28 09:17:25;;;;;;;6.72;2.30;;;33.40;47.10;;;;;;11018875;32;20026;-73
2022/06/28 09:23:33;;;;;;;9.85;4.70;;;33.40;46.10;;;;;;11016425;32;20033;-74
2022/06/28 09:29:52;;;;;;;6.75;2.58;;;33.30;45.30;;;;;;11018628;32;20045;-73
2022/06/28 09:35:54;;;;;;;11.32;3.78;;;33.30;45.30;;;;;;11018412;32;20342;-68
2022/06/28 09:41:57;;;;;;;4.10;1.75;;;33.30;45.50;;;;;;11018410;32;20010;-74
2022/06/28 09:48:01;;;;;;;7.18;2.22;;;33.20;45.00;;;;;;11018318;32;20026;-73
2022/06/28 09:54:08;;;;;;;11.18;2.53;;;33.20;44.60;;;;;;11018247;32;20015;-68
2022/06/28 10:00:12;;;;;;;6.03;2.08;;;33.10;44.50;;;;;;11017856;32;20057;-68
2022/06/28 10:06:16;;;;;;;4.55;1.85;;;33.10;44.50;;;;;;11013721;32;20065;-69
2022/06/28 10:19:00;;;;;;;9.75;2.47;;;33.00;44.90;;;;;;11017714;32;20049;-68
2022/06/28 10:25:30;;;;;;;5.82;1.67;;;32.90;45.40;;;;;;11005978;32;20026;-69
2022/06/28 10:31:43;;;;;;;3.83;1.05;;;32.90;45.10;;;;;;11020294;32;20026;-69
2022/06/28 10:38:10;;;;;;;7.93;2.75;;;32.80;45.00;;;;;;11018272;32;20018;-68
2022/06/28 10:44:32;;;;;;;7.33;1.70;;;32.70;45.20;;;;;;11009214;32;20031;-69
2022/06/28 10:51:00;;;;;;;3.53;1.73;;;32.50;45.20;;;;;;10826873;33;20074;-69
2022/06/28 10:57:34;;;;;;;5.47;2.30;;;32.40;45.40;;;;;;10825825;33;20075;-69
2022/06/28 11:10:36;;;;;;;10.98;2.35;;;32.40;45.70;;;;;;10824856;33;20043;-68
2022/06/28 11:16:47;;;;;;;8.10;2.53;;;32.30;45.90;;;;;;10821468;33;20051;-67
2022/06/28 11:22:51;;;;;;;3.15;1.23;;;32.30;46.70;;;;;;10829065;33;20050;-67
2022/06/28 11:28:59;;;;;;;2.17;1.37;;;32.10;47.60;;;;;;10573388;32;13044669;-68
2022/06/28 11:35:07;;;;;;;4.12;1.65;;;32.30;48.50;;;;;;10943764;32;20435;-70
2022/06/28 11:41:09;;;;;;;5.55;1.50;;;32.40;48.20;;;;;;10943856;32;20292;-68
2022/06/28 11:47:11;;;;;;;12.00;2.80;;;32.30;48.20;;;;;;10930278;32;20019;-69
2022/06/28 11:53:15;;;;;;;4.60;1.45;;;32.30;48.20;;;;;;10965628;32;20057;-70
2022/06/28 11:59:17;;;;;;;5.90;1.98;;;32.30;48.00;;;;;;11022011;32;20022;-70
2022/06/28 12:05:34;;;;;;;6.57;2.45;;;32.30;47.60;;;;;;11021932;32;20394;-69
2022/06/28 12:11:45;;;;;;;6.03;2.23;;;32.20;48.30;;;;;;11021547;32;20049;-70
2022/06/28 12:17:48;;;;;;;5.35;1.73;;;32.10;49.80;;;;;;11017374;32;20032;-70
2022/06/28 12:23:53;;;;;;;5.90;1.62;;;32.00;50.90;;;;;;11015463;32;20092;-70
2022/06/28 12:29:59;;;;;;;4.87;1.77;;;32.00;51.10;;;;;;11000894;27;20073;-70
2022/06/28 12:36:02;;;;;;;4.27;1.90;;;32.00;52.00;;;;;;10982267;32;20061;-70
2022/06/28 12:42:05;;;;;;;12.68;3.28;;;32.10;53.20;;;;;;10965655;32;20387;-74
2022/06/28 12:48:08;;;;;;;9.00;2.75;;;32.00;54.90;;;;;;10981083;32;20019;-75
2022/06/28 12:54:09;;;;;;;12.32;3.12;;;31.90;56.70;;;;;;10981418;32;20041;-74
2022/06/28 13:00:13;;;;;;;9.77;3.05;;;32.10;56.90;;;;;;10981309;32;20421;-75
2022/06/28 13:06:15;;;;;;;5.35;2.90;;;32.20;57.30;;;;;;10981046;32;20050;-76
2022/06/28 13:12:17;;;;;;;6.95;3.33;;;32.30;57.60;;;;;;10981165;32;20361;-74
2022/06/28 13:18:20;;;;;;;9.60;2.85;;;32.40;57.50;;;;;;10980968;32;20014;-74
2022/06/28 13:24:21;;;;;;;5.97;2.15;;;32.70;56.90;;;;;;10967848;32;20382;-75
2022/06/28 13:30:45;;;;;;;9.57;2.78;;;32.90;56.60;;;;;;10981426;32;20334;-74
2022/06/28 13:36:47;;;;;;;9.02;3.35;;;32.90;56.60;;;;;;10981354;32;20365;-75
2022/06/28 13:42:49;;;;;;;10.68;3.92;;;32.60;57.10;;;;;;10981160;32;20314;-75
2022/06/28 13:48:51;;;;;;;7.03;2.80;;;32.40;57.10;;;;;;10966939;32;20027;-75
2022/06/28 13:54:53;;;;;;;12.73;3.37;;;32.40;56.90;;;;;;10980553;32;20014;-75
2022/06/28 14:01:19;;;;;;;12.45;3.90;;;32.30;57.00;;;;;;10980278;32;20062;-75
2022/06/28 14:07:21;;;;;;;5.30;2.87;;;32.30;57.20;;;;;;10980603;32;20010;-75
2022/06/28 14:13:24;;;;;;;5.20;1.98;;;32.10;57.50;;;;;;10967040;32;20045;-74
2022/06/28 14:19:54;;;;;;;8.27;2.05;;;32.10;57.40;;;;;;10979618;32;20076;-75
2022/06/28 14:25:56;;;;;;;5.80;2.20;;;32.20;57.10;;;;;;10977101;32;20050;-75
2022/06/28 14:31:59;;;;;;;7.85;2.75;;;32.30;56.80;;;;;;10978877;32;20015;-69
2022/06/28 14:38:02;;;;;;;6.40;2.72;;;32.30;56.70;;;;;;10976465;32;20049;-71
2022/06/28 14:44:04;;;;;;;13.38;3.87;;;32.30;56.90;;;;;;10947616;32;20023;-71
2022/06/28 14:50:08;;;;;;;6.28;2.92;;;32.10;56.80;;;;;;10943602;32;20065;-71
2022/06/28 14:56:10;;;;;;;9.73;3.50;;;32.00;56.90;;;;;;10938052;32;20046;-71
2022/06/28 15:02:13;;;;;;;4.20;2.28;;;31.90;56.90;;;;;;10923897;32;20336;-70
2022/06/28 15:08:15;;;;;;;5.43;2.20;;;31.90;56.80;;;;;;10941333;32;20073;-70
2022/06/28 15:14:17;;;;;;;6.85;2.60;;;31.90;56.80;;;;;;10945333;32;20049;-69
2022/06/28 15:20:22;;;;;;;6.93;3.40;;;31.90;56.60;;;;;;10948059;32;20030;-71
2022/06/28 15:32:46;;;;;;;3.15;1.62;;;32.20;56.20;;;;;;10947455;32;20387;-71
2022/06/28 15:38:56;;;;;;;15.60;2.97;;;32.30;56.00;;;;;;10931164;32;20026;-71
2022/06/28 15:44:59;;;;;;;6.35;3.10;;;32.30;55.80;;;;;;10943691;32;20030;-70
2022/06/28 15:51:01;;;;;;;13.18;2.97;;;32.30;55.60;;;;;;10943464;32;20292;-69
2022/06/28 15:57:03;;;;;;;9.43;3.25;;;32.30;55.40;;;;;;10933488;32;20026;-67
2022/06/28 16:03:05;;;;;;;7.15;3.03;;;32.40;55.30;;;;;;10946651;32;20396;-70
2022/06/28 16:09:10;;;;;;;11.68;2.47;;;32.40;55.40;;;;;;10946425;32;20053;-70
2022/06/28 16:15:12;;;;;;;14.85;2.92;;;32.60;55.20;;;;;;10932516;32;20015;-71
2022/06/28 16:21:14;;;;;;;6.80;3.00;;;32.80;55.30;;;;;;10931546;32;20411;-70
2022/06/28 16:27:16;;;;;;;16.35;3.42;;;32.90;55.20;;;;;;10941826;32;20061;-70
2022/06/28 16:33:18;;;;;;;6.87;2.72;;;32.90;55.00;;;;;;10927865;32;20026;-71
2022/06/28 16:39:20;;;;;;;6.75;2.58;;;32.90;55.10;;;;;;10945379;32;20391;-70
2022/06/28 16:45:22;;;;;;;7.53;3.35;;;32.90;55.00;;;;;;10944653;32;20034;-71
2022/06/28 16:51:29;;;;;;;9.45;3.33;;;32.90;55.00;;;;;;10945219;32;20049;-75
2022/06/28 16:57:46;;;;;;;15.52;2.72;;;32.80;55.10;;;;;;10944820;32;20026;-74
2022/06/28 17:03:48;;;;;;;7.85;3.15;;;32.80;55.20;;;;;;10944728;32;20030;-74
2022/06/28 17:09:53;;;;;;;5.78;2.00;;;32.70;55.30;;;;;;10931001;32;20027;-74
2022/06/28 17:15:57;;;;;;;11.52;3.62;;;32.60;55.60;;;;;;10930623;32;20054;-73
2022/06/28 17:22:00;;;;;;;10.70;3.55;;;32.40;55.70;;;;;;10951302;32;20069;-75
2022/06/28 17:28:02;;;;;;;17.80;5.20;;;32.30;56.30;;;;;;10981192;32;20045;-74
2022/06/28 17:34:04;;;;;;;6.07;3.05;;;32.20;56.50;;;;;;10980715;32;20018;-74
2022/06/28 17:40:07;;;;;;;5.65;2.83;;;32.10;56.70;;;;;;10949307;32;20049;-73
2022/06/28 17:46:09;;;;;;;19.95;3.60;;;32.00;56.60;;;;;;10945225;32;20399;-73
2022/06/28 17:52:12;;;;;;;21.30;3.42;;;31.90;56.90;;;;;;10954759;32;20031;-68
2022/06/28 17:58:14;;;;;;;12.45;3.33;;;31.90;57.10;;;;;;10941090;32;20064;-70
2022/06/28 18:04:17;;;;;;;16.15;3.72;;;31.80;56.70;;;;;;10943776;32;20440;-73
2022/06/28 18:10:38;;;;;;;6.60;2.75;;;31.80;56.50;;;;;;10951181;32;20056;-74
2022/06/28 18:16:52;;;;;;;14.38;2.95;;;31.80;56.80;;;;;;10974531;32;20041;-73
2022/06/28 18:22:55;;;;;;;22.30;3.83;;;31.80;56.70;;;;;;10965317;32;20038;-74
2022/06/28 18:28:57;;;;;;;9.13;2.97;;;31.80;56.60;;;;;;10965629;32;20027;-75
2022/06/28 18:35:02;;;;;;;11.50;3.70;;;31.70;56.50;;;;;;10942339;32;20342;-74
2022/06/28 18:41:05;;;;;;;11.80;3.00;;;31.70;56.40;;;;;;10958581;32;20027;-74
2022/06/28 18:47:07;;;;;;;7.65;2.58;;;31.60;56.50;;;;;;10945111;32;20022;-70
2022/06/28 18:53:09;;;;;;;9.48;3.85;;;31.50;56.80;;;;;;10949945;32;20023;-71
2022/06/28 18:59:14;;;;;;;11.15;3.55;;;31.30;57.20;;;;;;10944553;32;20394;-70
2022/06/28 19:05:16;;;;;;;8.68;3.12;;;31.20;57.50;;;;;;10948594;32;20027;-70
2022/06/28 19:11:18;;;;;;;5.15;2.30;;;31.10;57.90;;;;;;10950294;32;20409;-71
2022/06/28 19:17:20;;;;;;;6.82;2.05;;;31.00;58.10;;;;;;10944186;32;20304;-70
2022/06/28 19:23:23;;;;;;;6.53;2.42;;;30.90;58.20;;;;;;10932830;32;20077;-70
2022/06/28 19:29:27;;;;;;;3.62;2.12;;;30.90;58.20;;;;;;10946495;32;20089;-70
2022/06/28 19:35:29;;;;;;;12.37;3.42;;;30.90;58.10;;;;;;10978821;32;20411;-71
2022/06/28 19:41:32;;;;;;;8.70;3.17;;;30.90;58.10;;;;;;10969149;32;20033;-70
2022/06/28 19:47:59;;;;;;;6.57;2.78;;;30.80;58.30;;;;;;10981053;32;20018;-71
2022/06/28 19:55:12;;;;;;;8.05;4.03;;;30.80;58.30;;;;;;10982960;32;20023;-70
2022/06/28 20:01:40;;;;;;;6.00;2.70;;;30.60;60.10;;;;;;10942998;32;20054;-70
2022/06/28 20:07:44;;;;;;;5.75;3.30;;;30.40;61.70;;;;;;10935900;32;20038;-70
2022/06/28 20:13:47;;;;;;;10.73;4.37;;;30.30;61.40;;;;;;10937606;32;20088;-70
2022/06/28 20:19:49;;;;;;;10.50;4.60;;;30.20;61.20;;;;;;10939060;32;20050;-70
2022/06/28 20:25:51;;;;;;;12.15;3.53;;;30.30;61.10;;;;;;10938055;32;20038;-70
2022/06/28 20:32:12;;;;;;;20.42;4.40;;;30.20;60.90;;;;;;10977159;27;20065;-69
2022/06/28 20:38:14;;;;;;;6.22;2.80;;;30.10;61.00;;;;;;11010218;32;20018;-69
2022/06/28 20:44:17;;;;;;;10.20;3.28;;;30.00;61.30;;;;;;11002811;32;20034;-70
2022/06/28 20:51:02;;;;;;;6.95;3.50;;;29.90;61.40;;;;;;11015921;32;20015;-70
2022/06/28 20:57:33;;;;;;;7.47;3.20;;;29.80;61.30;;;;;;11002257;32;20425;-70
2022/06/28 21:03:35;;;;;;;8.43;3.90;;;29.70;62.20;;;;;;11013158;32;20034;-69
2022/06/28 21:09:38;;;;;;;11.50;4.70;;;29.50;62.10;;;;;;11015074;32;20056;-69
2022/06/28 21:15:40;;;;;;;15.05;4.43;;;29.40;62.70;;;;;;11015134;32;20022;-69
2022/06/28 21:21:42;;;;;;;10.30;4.05;;;29.30;62.90;;;;;;11014894;32;20048;-68
2022/06/28 21:27:46;;;;;;;8.43;3.30;;;29.20;63.30;;;;;;11014575;32;20029;-69
2022/06/28 21:33:48;;;;;;;15.00;5.50;;;29.30;63.00;;;;;;11014370;32;20022;-68
2022/06/28 21:39:50;;;;;;;15.48;4.05;;;29.20;63.10;;;;;;11014538;32;20023;-70
2022/06/28 21:46:00;;;;;;;12.55;4.55;;;29.00;63.40;;;;;;11014115;32;20060;-75
2022/06/28 21:52:04;;;;;;;18.58;4.93;;;28.90;63.50;;;;;;11018417;32;20036;-77
2022/06/28 21:58:08;;;;;;;8.20;4.10;;;28.80;63.70;;;;;;11004554;32;20057;-75
2022/06/28 22:04:11;;;;;;;5.10;2.55;;;28.80;63.50;;;;;;11017871;32;20026;-74
2022/06/28 22:10:13;;;;;;;9.30;2.67;;;28.90;63.20;;;;;;11004312;32;20022;-74
2022/06/28 22:16:37;;;;;;;9.63;2.42;;;28.90;63.40;;;;;;11003994;32;20017;-74
2022/06/28 22:22:39;;;;;;;4.22;2.22;;;28.90;63.60;;;;;;11023026;32;20022;-74
2022/06/28 22:28:41;;;;;;;8.70;3.12;;;28.90;63.60;;;;;;11025274;32;20011;-73
2022/06/28 22:34:43;;;;;;;8.75;3.58;;;28.90;63.70;;;;;;11022788;32;20413;-73
2022/06/28 22:40:46;;;;;;;5.78;2.33;;;29.00;63.60;;;;;;11025060;32;20021;-73
2022/06/28 22:46:48;;;;;;;9.63;2.40;;;28.90;63.60;;;;;;11024806;32;20022;-74
2022/06/28 22:52:50;;;;;;;9.93;2.67;;;28.80;63.70;;;;;;11024709;32;20037;-71
2022/06/28 22:58:52;;;;;;;11.30;3.37;;;28.80;64.00;;;;;;11022634;32;20040;-70
2022/06/28 23:04:54;;;;;;;10.45;3.20;;;28.70;64.20;;;;;;11021934;32;20385;-70
2022/06/28 23:10:59;;;;;;;8.77;3.05;;;28.70;64.20;;;;;;11021634;32;20057;-70
2022/06/28 23:17:02;;;;;;;8.68;3.17;;;28.70;64.40;;;;;;11019486;32;20049;-70
2022/06/28 23:23:04;;;;;;;6.37;2.45;;;28.70;64.20;;;;;;11019670;32;20025;-71
2022/06/28 23:29:06;;;;;;;5.03;2.62;;;28.80;64.30;;;;;;11020859;32;20022;-71
2022/06/28 23:35:08;;;;;;;7.47;3.17;;;28.80;64.40;;;;;;11019633;32;20026;-70
2022/06/28 23:41:11;;;;;;;4.95;2.62;;;28.70;64.70;;;;;;11021922;32;20064;-70
2022/06/28 23:47:13;;;;;;;4.47;2.45;;;28.60;64.70;;;;;;11018303;32;20040;-71
2022/06/28 23:53:15;;;;;;;3.28;2.17;;;28.50;65.00;;;;;;11018399;32;20022;-70
2022/06/28 23:59:17;;;;;;;10.48;2.55;;;28.40;65.20;;;;;;11019334;32;20049;-74
